Time;durP1;ratioP1;P1;durP2;ratioP2;P2;SDS_P1;SDS_P2;PMS_P1;PMS_P2;Temp;Humidity;BMP_temperature;BMP_pressure;BME280_temperature;BME280_humidity;BME280_pressure;Samples;Min_cycle;Max_cycle;Signal;HPM_P1;HPM_P2
2021/12/06 00:01:31;;;;;;;26.88;17.25;;;281.90;2278.40;;;;;;4903176;29;20373;-89
2021/12/06 00:04:10;;;;;;;24.08;13.98;;;281.90;2278.40;;;;;;4903007;29;20099;-89
2021/12/06 00:06:40;;;;;;;30.42;19.88;;;281.90;2278.40;;;;;;4903140;29;20039;-90
2021/12/06 00:09:10;;;;;;;21.33;14.25;;;281.90;2278.40;;;;;;4903075;29;20084;-90
2021/12/06 00:11:36;;;;;;;40.25;23.17;;;282.00;2278.40;;;;;;4903032;29;20024;-90
2021/12/06 00:14:03;;;;;;;27.23;17.58;;;282.00;2278.40;;;;;;4902689;29;20043;-89
2021/12/06 00:16:32;;;;;;;22.33;15.13;;;282.00;2278.40;;;;;;4902727;29;20032;-89
2021/12/06 00:18:59;;;;;;;18.35;13.00;;;281.90;2278.40;;;;;;4902689;29;20027;-89
2021/12/06 00:21:25;;;;;;;19.15;13.45;;;282.00;2278.40;;;;;;4902519;29;20131;-91
2021/12/06 00:23:52;;;;;;;30.30;16.52;;;282.00;2278.40;;;;;;4902738;29;20064;-91
2021/12/06 00:26:18;;;;;;;30.90;17.95;;;282.00;2278.40;;;;;;4902712;29;20417;-89
2021/12/06 00:28:45;;;;;;;31.35;19.17;;;281.80;2278.40;;;;;;4902582;29;20024;-89
2021/12/06 00:31:14;;;;;;;24.42;13.88;;;281.60;2278.40;;;;;;4902692;29;20060;-89
2021/12/06 00:33:42;;;;;;;16.75;11.95;;;281.90;2278.40;;;;;;4902245;29;20020;-89
2021/12/06 00:36:15;;;;;;;19.58;13.38;;;281.80;2278.40;;;;;;4902328;29;20032;-90
2021/12/06 00:38:43;;;;;;;20.17;13.40;;;281.80;2278.40;;;;;;4902391;29;20067;-88
2021/12/06 00:41:09;;;;;;;45.53;25.38;;;281.80;2278.40;;;;;;4902350;29;20027;-90
2021/12/06 00:43:35;;;;;;;48.05;25.92;;;281.80;2278.40;;;;;;4902357;29;20024;-89
2021/12/06 00:46:01;;;;;;;43.38;24.08;;;281.80;2278.40;;;;;;4902224;29;20523;-88
2021/12/06 00:48:27;;;;;;;36.63;23.20;;;281.80;2278.40;;;;;;4902290;29;20100;-87
2021/12/06 00:50:53;;;;;;;45.03;26.35;;;281.80;2278.40;;;;;;4902318;29;20023;-89
2021/12/06 00:53:19;;;;;;;50.63;28.55;;;281.80;2278.40;;;;;;4902045;29;20449;-91
2021/12/06 00:55:44;;;;;;;46.95;28.73;;;281.80;2278.40;;;;;;4901762;29;20420;-91
2021/12/06 00:58:10;;;;;;;45.78;28.67;;;281.80;2278.40;;;;;;4902136;29;20024;-90
2021/12/06 01:00:44;;;;;;;54.63;30.95;;;281.70;2278.40;;;;;;4901851;29;20024;-89
2021/12/06 01:03:13;;;;;;;37.80;25.48;;;281.70;2278.40;;;;;;4902071;29;20020;-89
2021/12/06 01:05:39;;;;;;;32.65;21.45;;;281.70;2278.40;;;;;;4901759;29;20051;-90
2021/12/06 01:08:05;;;;;;;30.88;19.98;;;281.70;2278.40;;;;;;4902042;29;20111;-89
2021/12/06 01:10:33;;;;;;;28.63;19.80;;;281.70;2278.40;;;;;;4901647;29;20028;-90
2021/12/06 01:13:00;;;;;;;32.40;18.83;;;281.70;2278.40;;;;;;4901720;29;20044;-89
2021/12/06 01:15:27;;;;;;;23.80;16.10;;;281.70;2278.40;;;;;;4901909;29;20467;-89
2021/12/06 01:17:54;;;;;;;27.15;16.80;;;281.60;2278.40;;;;;;4901663;29;20028;-89
2021/12/06 01:20:25;;;;;;;31.02;21.92;;;282.20;2278.40;;;;;;4901574;29;20024;-90
2021/12/06 01:22:56;;;;;;;34.65;22.90;;;281.60;2278.40;;;;;;4901673;29;20030;-90
2021/12/06 01:25:32;;;;;;;34.83;21.80;;;281.60;2278.40;;;;;;4901517;29;20031;-90
2021/12/06 01:30:33;;;;;;;24.67;18.92;;;281.60;2278.40;;;;;;4918501;29;20445;-89
2021/12/06 01:33:17;;;;;;;29.95;17.88;;;281.60;2278.40;;;;;;4901929;29;20024;-89
2021/12/06 01:41:13;;;;;;;23.35;15.43;;;256.80;2252.80;;;;;;4918482;29;20123;-89
2021/12/06 01:44:07;;;;;;;24.58;17.98;;;256.70;2252.80;;;;;;4922644;29;20012;-89
2021/12/06 01:46:34;;;;;;;23.60;15.73;;;256.70;2252.80;;;;;;4902727;29;20044;-89
2021/12/06 01:49:00;;;;;;;40.58;28.60;;;256.50;2252.80;;;;;;4901543;29;20020;-89
2021/12/06 01:51:27;;;;;;;45.35;31.35;;;256.50;2252.80;;;;;;4901620;29;20412;-90
2021/12/06 01:53:53;;;;;;;61.85;40.58;;;256.50;2252.80;;;;;;4901444;29;20016;-90
2021/12/06 01:56:19;;;;;;;46.88;29.67;;;256.50;2252.80;;;;;;4901408;29;20376;-90
2021/12/06 01:58:45;;;;;;;41.88;26.45;;;256.50;2252.80;;;;;;4901649;29;20032;-90
2021/12/06 02:01:11;;;;;;;40.25;25.38;;;256.40;2252.80;;;;;;4901426;29;20024;-90
2021/12/06 02:03:37;;;;;;;28.92;19.20;;;256.40;2252.80;;;;;;4901542;29;20034;-91
2021/12/06 02:06:04;;;;;;;28.52;19.25;;;281.80;2278.40;;;;;;4901395;29;20067;-91
2021/12/06 02:08:30;;;;;;;32.83;20.63;;;256.40;2252.80;;;;;;4901376;29;20028;-90
2021/12/06 02:11:01;;;;;;;29.17;18.52;;;256.40;2252.80;;;;;;4901300;29;20107;-92
2021/12/06 02:13:37;;;;;;;28.80;18.80;;;256.30;2252.80;;;;;;4901564;29;20024;-91
2021/12/06 02:16:04;;;;;;;32.45;20.23;;;256.40;2252.80;;;;;;4901310;29;20036;-90
2021/12/06 02:21:19;;;;;;;17.17;11.45;;;256.20;2252.80;;;;;;4918246;29;20028;-88
2021/12/06 02:23:45;;;;;;;;;;;256.20;2252.80;;;;;;4901527;29;20027;-90
2021/12/06 02:26:13;;;;;;;26.02;16.75;;;256.20;2252.80;;;;;;4901309;29;19958;-91
2021/12/06 02:28:39;;;;;;;23.13;16.90;;;256.00;2252.80;;;;;;4901194;29;20399;-91
2021/12/06 02:31:05;;;;;;;25.60;16.27;;;231.30;2252.80;;;;;;4901107;29;20027;-91
2021/12/06 02:33:31;;;;;;;24.13;14.43;;;256.00;2252.80;;;;;;4901204;29;20028;-90
2021/12/06 02:35:57;;;;;;;18.83;12.10;;;231.30;2252.80;;;;;;4901173;29;20043;-92
2021/12/06 02:38:23;;;;;;;24.95;15.88;;;256.00;2252.80;;;;;;4901116;29;20064;-90
2021/12/06 02:40:49;;;;;;;21.65;15.05;;;256.00;2252.80;;;;;;4901038;29;20496;-90
2021/12/06 02:43:15;;;;;;;22.30;14.02;;;256.00;2252.80;;;;;;4901134;29;20456;-91
2021/12/06 02:45:42;;;;;;;21.17;15.00;;;256.10;2252.80;;;;;;4900897;29;20587;-92
2021/12/06 02:48:10;;;;;;;18.08;12.15;;;256.00;2252.80;;;;;;4900549;29;20047;-91
2021/12/06 02:50:49;;;;;;;21.77;16.13;;;231.30;2150.40;;;;;;4901006;29;20028;-90
2021/12/06 02:53:17;;;;;;;23.10;15.95;;;231.30;1920.00;;;;;;4901230;29;20028;-91
2021/12/06 02:55:43;;;;;;;20.80;15.52;;;231.30;2252.80;;;;;;4900920;29;20028;-91
2021/12/06 02:58:32;;;;;;;20.50;15.00;;;256.00;2252.80;;;;;;4904458;29;20039;-91
2021/12/06 03:00:58;;;;;;;21.40;15.85;;;256.00;2252.80;;;;;;4903961;29;20039;-91
2021/12/06 03:03:24;;;;;;;28.48;19.02;;;256.00;2252.80;;;;;;4904311;29;20020;-90
2021/12/06 03:05:50;;;;;;;31.30;22.42;;;256.10;2252.80;;;;;;4904444;29;20420;-91
2021/12/06 03:08:39;;;;;;;25.10;18.58;;;256.00;2252.80;;;;;;4904221;29;20028;-91
2021/12/06 03:11:15;;;;;;;31.75;20.00;;;256.10;2252.80;;;;;;4904091;29;20020;-89
2021/12/06 03:13:41;;;;;;;24.45;19.70;;;256.00;2252.80;;;;;;4904225;29;20026;-90
2021/12/06 03:16:07;;;;;;;29.30;19.90;;;231.30;1894.40;;;;;;4904328;29;20373;-90
2021/12/06 03:18:34;;;;;;;36.00;24.20;;;231.30;2252.80;;;;;;4904071;29;20021;-91
2021/12/06 03:21:00;;;;;;;34.75;22.15;;;231.30;2252.80;;;;;;4904166;29;20087;-91
2021/12/06 03:23:26;;;;;;;34.42;23.38;;;231.30;2252.80;;;;;;4904131;29;20115;-91
2021/12/06 03:25:52;;;;;;;34.03;20.98;;;231.30;2252.80;;;;;;4903772;29;20039;-90
2021/12/06 03:28:18;;;;;;;33.38;23.10;;;256.00;2252.80;;;;;;4903659;29;20028;-91
2021/12/06 03:30:45;;;;;;;41.22;25.30;;;231.30;2252.80;;;;;;4903740;29;20042;-91
2021/12/06 03:33:11;;;;;;;48.50;30.98;;;256.00;2252.80;;;;;;4903931;29;20035;-91
2021/12/06 03:35:37;;;;;;;58.40;35.80;;;256.00;2252.80;;;;;;4903755;29;20032;-91
2021/12/06 03:38:03;;;;;;;60.58;38.92;;;231.10;2252.80;;;;;;4903870;29;20465;-91
2021/12/06 03:40:29;;;;;;;61.92;36.08;;;231.30;2252.80;;;;;;4903582;29;20052;-92
2021/12/06 03:42:55;;;;;;;57.53;35.92;;;256.00;2252.80;;;;;;4903752;29;20360;-90
2021/12/06 03:45:21;;;;;;;54.33;37.35;;;256.00;2252.80;;;;;;4903673;29;20111;-91
2021/12/06 03:47:47;;;;;;;55.22;35.50;;;231.30;2252.80;;;;;;4903219;29;20123;-91
2021/12/06 03:50:14;;;;;;;40.88;29.40;;;231.10;2252.80;;;;;;4903301;29;20438;-91
2021/12/06 03:52:40;;;;;;;46.05;29.63;;;231.30;2252.80;;;;;;4903220;29;20099;-90
2021/12/06 03:55:07;;;;;;;58.92;37.00;;;231.20;2252.80;;;;;;4903515;29;20476;-91
2021/12/06 03:57:33;;;;;;;70.38;45.00;;;231.20;2252.80;;;;;;4903371;29;20036;-91
2021/12/06 03:59:59;;;;;;;73.15;46.25;;;231.30;2252.80;;;;;;4903734;29;20047;-91
2021/12/06 04:02:28;;;;;;;97.13;55.47;;;231.30;2252.80;;;;;;4903421;29;20460;-90
2021/12/06 04:04:55;;;;;;;97.07;58.38;;;231.30;2252.80;;;;;;4903338;29;20044;-92
2021/12/06 04:07:23;;;;;;;106.65;66.18;;;231.30;2252.80;;;;;;4903088;29;20035;-91
2021/12/06 04:09:49;;;;;;;66.28;43.08;;;231.20;2252.80;;;;;;4902897;29;20031;-91
2021/12/06 04:12:17;;;;;;;36.00;26.80;;;231.20;2124.80;;;;;;4903500;29;20345;-90
2021/12/06 04:14:43;;;;;;;38.90;26.58;;;231.10;2252.80;;;;;;4902888;29;20080;-92
2021/12/06 04:17:09;;;;;;;34.03;23.48;;;231.10;2252.80;;;;;;4903187;29;20119;-92
2021/12/06 04:19:40;;;;;;;28.70;22.70;;;231.00;2252.80;;;;;;4902988;29;20064;-92
2021/12/06 04:22:06;;;;;;;49.47;34.85;;;231.10;2252.80;;;;;;4903115;29;20020;-92
2021/12/06 04:24:33;;;;;;;46.78;33.63;;;231.20;2252.80;;;;;;4902871;29;20124;-91
2021/12/06 04:27:02;;;;;;;49.40;35.72;;;231.30;2252.80;;;;;;4903253;29;20111;-92
2021/12/06 04:29:28;;;;;;;48.67;33.83;;;231.20;2252.80;;;;;;4903083;29;20016;-90
2021/12/06 04:31:55;;;;;;;51.92;36.85;;;231.30;2252.80;;;;;;4903707;29;20020;-92
2021/12/06 04:34:21;;;;;;;48.25;32.38;;;231.20;2252.80;;;;;;4903155;29;20115;-91
2021/12/06 04:36:53;;;;;;;47.95;34.17;;;231.30;2252.80;;;;;;4902998;29;20031;-91
2021/12/06 04:39:24;;;;;;;55.17;37.83;;;231.20;2252.80;;;;;;4903073;29;20028;-91
2021/12/06 04:41:56;;;;;;;45.78;31.77;;;231.30;2252.80;;;;;;4903321;29;20028;-92
2021/12/06 04:44:22;;;;;;;45.53;31.77;;;231.30;2252.80;;;;;;4902655;29;20031;-93
2021/12/06 04:46:51;;;;;;;42.28;28.58;;;231.20;2252.80;;;;;;4902261;29;20044;-91
2021/12/06 04:49:17;;;;;;;39.58;26.60;;;231.20;2252.80;;;;;;4902093;29;20468;-92
2021/12/06 04:51:45;;;;;;;37.78;26.27;;;231.30;2252.80;;;;;;4902361;29;20107;-92
2021/12/06 04:54:13;;;;;;;64.55;51.42;;;231.00;2252.80;;;;;;4902414;29;20028;-91
2021/12/06 04:56:48;;;;;;;61.95;50.05;;;230.90;2252.80;;;;;;4902257;29;20106;-92
2021/12/06 04:59:25;;;;;;;43.90;33.70;;;230.90;2252.80;;;;;;4902541;29;20016;-91
2021/12/06 05:01:55;;;;;;;42.42;37.25;;;230.80;2252.80;;;;;;4902184;29;20071;-91
2021/12/06 05:04:25;;;;;;;37.95;29.25;;;230.70;2252.80;;;;;;4902404;29;20027;-92
2021/12/06 05:06:55;;;;;;;34.25;24.20;;;230.70;2252.80;;;;;;4902096;29;20091;-92
2021/12/06 05:09:29;;;;;;;27.92;19.48;;;230.60;2252.80;;;;;;4902314;29;20024;-92
2021/12/06 05:11:56;;;;;;;34.08;20.67;;;230.60;2252.80;;;;;;4901912;29;20123;-92
2021/12/06 05:14:25;;;;;;;30.85;18.70;;;230.50;2252.80;;;;;;4902066;29;20043;-92
2021/12/06 05:16:51;;;;;;;34.92;25.88;;;230.50;2252.80;;;;;;4902089;29;20474;-91
2021/12/06 05:19:18;;;;;;;36.03;27.98;;;230.50;2150.40;;;;;;4901533;29;20030;-91
2021/12/06 05:21:44;;;;;;;32.42;25.25;;;230.50;2252.80;;;;;;4901903;29;20023;-91
2021/12/06 05:24:10;;;;;;;31.73;25.75;;;230.50;2252.80;;;;;;4902063;29;20020;-92
2021/12/06 05:26:37;;;;;;;32.05;23.27;;;230.60;2252.80;;;;;;4902086;29;20115;-91
2021/12/06 05:29:07;;;;;;;23.40;19.70;;;230.60;2252.80;;;;;;4917224;29;20064;-90
2021/12/06 05:31:38;;;;;;;24.42;17.90;;;230.70;2252.80;;;;;;4901856;29;20431;-91
2021/12/06 05:34:09;;;;;;;31.20;20.90;;;230.80;2252.80;;;;;;4902043;29;20107;-92
2021/12/06 05:36:35;;;;;;;33.00;19.67;;;230.70;2252.80;;;;;;4901827;29;20031;-90
2021/12/06 05:39:03;;;;;;;29.98;19.38;;;230.60;2252.80;;;;;;4901979;29;20380;-91
2021/12/06 05:41:29;;;;;;;31.25;20.08;;;230.60;2252.80;;;;;;4901800;29;20020;-91
2021/12/06 05:43:55;;;;;;;31.17;19.13;;;230.70;2252.80;;;;;;4901970;29;20023;-92
2021/12/06 05:46:20;;;;;;;40.78;28.42;;;230.70;2252.80;;;;;;4901408;29;20079;-91
2021/12/06 05:48:46;;;;;;;40.42;25.70;;;230.50;2252.80;;;;;;4902286;29;20084;-91
2021/12/06 05:51:12;;;;;;;48.28;30.90;;;230.60;2252.80;;;;;;4918572;29;20461;-91
2021/12/06 05:53:38;;;;;;;35.40;24.40;;;230.50;2252.80;;;;;;4901757;29;20028;-92
2021/12/06 05:56:05;;;;;;;42.90;29.55;;;230.60;2252.80;;;;;;4901722;29;20040;-93
2021/12/06 05:58:32;;;;;;;70.13;45.83;;;230.60;2252.80;;;;;;4901637;29;20035;-91
2021/12/06 06:00:58;;;;;;;64.82;45.95;;;230.50;2252.80;;;;;;4901397;29;20028;-91
2021/12/06 06:03:25;;;;;;;56.50;38.72;;;230.50;2252.80;;;;;;4901796;29;20020;-92
2021/12/06 06:05:52;;;;;;;54.75;39.22;;;230.60;2252.80;;;;;;4901609;29;20461;-91
2021/12/06 06:08:18;;;;;;;54.13;37.33;;;230.60;2252.80;;;;;;4901604;29;20179;-91
2021/12/06 06:10:45;;;;;;;71.20;50.75;;;230.60;2252.80;;;;;;4901364;29;20052;-93
2021/12/06 06:13:11;;;;;;;52.15;41.72;;;230.70;2252.80;;;;;;4901644;29;20020;-92
2021/12/06 06:15:37;;;;;;;42.75;31.00;;;230.60;2252.80;;;;;;4901378;29;20024;-91
2021/12/06 06:18:04;;;;;;;36.03;26.05;;;230.50;2252.80;;;;;;4901137;29;20457;-92
2021/12/06 06:20:51;;;;;;;34.05;25.77;;;230.60;2252.80;;;;;;4901488;29;20029;-91
2021/12/06 06:23:20;;;;;;;35.88;26.38;;;230.70;2150.40;;;;;;4901485;29;20072;-90
2021/12/06 06:25:46;;;;;;;49.60;34.50;;;231.20;2252.80;;;;;;4901249;29;20465;-89
2021/12/06 06:28:12;;;;;;;50.25;38.03;;;230.70;2252.80;;;;;;4900720;29;20042;-89
2021/12/06 06:30:38;;;;;;;62.35;44.22;;;230.70;2252.80;;;;;;4900789;29;20020;-90
2021/12/06 06:33:05;;;;;;;147.20;112.15;;;230.70;2252.80;;;;;;4904441;29;20025;-89
2021/12/06 06:35:31;;;;;;;109.78;89.10;;;230.60;2252.80;;;;;;4904911;29;20020;-89
2021/12/06 06:37:57;;;;;;;90.15;69.93;;;230.70;2252.80;;;;;;4904749;29;20036;-89
2021/12/06 06:40:23;;;;;;;70.63;58.05;;;230.60;2252.80;;;;;;4904784;29;20055;-89
2021/12/06 06:42:49;;;;;;;72.05;55.45;;;230.70;2252.80;;;;;;4904569;29;20059;-89
2021/12/06 06:45:18;;;;;;;77.47;57.17;;;231.20;2252.80;;;;;;4904777;29;20028;-90
2021/12/06 06:47:45;;;;;;;96.88;68.90;;;230.60;2252.80;;;;;;4904301;29;20499;-88
2021/12/06 06:50:11;;;;;;;146.65;106.70;;;230.60;2252.80;;;;;;4904465;29;20028;-89
2021/12/06 06:52:38;;;;;;;138.85;101.22;;;205.50;2252.80;;;;;;4904681;29;20372;-90
2021/12/06 06:55:07;;;;;;;140.32;101.15;;;230.60;2252.80;;;;;;4904480;29;20039;-89
2021/12/06 06:57:33;;;;;;;143.65;105.75;;;230.70;2252.80;;;;;;4904250;29;20098;-90
2021/12/06 06:59:59;;;;;;;128.23;96.75;;;230.70;2252.80;;;;;;4904505;29;20469;-90
2021/12/06 07:02:25;;;;;;;116.03;85.80;;;230.60;2227.20;;;;;;4904460;29;20060;-89
2021/12/06 07:04:51;;;;;;;134.45;103.75;;;230.80;2252.80;;;;;;4904359;29;20111;-90
2021/12/06 07:07:17;;;;;;;146.88;112.13;;;230.60;2252.80;;;;;;4904483;29;20036;-89
2021/12/06 07:09:46;;;;;;;146.93;115.68;;;230.60;2252.80;;;;;;4904131;29;20020;-90
2021/12/06 07:12:16;;;;;;;138.02;105.45;;;230.60;2252.80;;;;;;4904121;29;20032;-90
2021/12/06 07:14:43;;;;;;;462.67;266.75;;;230.60;2252.80;;;;;;4904437;29;20024;-89
2021/12/06 07:17:09;;;;;;;271.83;175.35;;;230.70;2252.80;;;;;;4904021;29;20028;-88
2021/12/06 07:19:36;;;;;;;168.13;127.85;;;230.60;2252.80;;;;;;4904081;29;20032;-91
2021/12/06 07:22:02;;;;;;;152.88;118.28;;;230.70;2252.80;;;;;;4904383;29;20457;-89
2021/12/06 07:24:28;;;;;;;121.22;96.57;;;230.60;2252.80;;;;;;4903852;29;20024;-89
2021/12/06 07:26:54;;;;;;;119.10;88.97;;;230.70;2252.80;;;;;;4903902;29;20024;-92
2021/12/06 07:29:20;;;;;;;101.65;78.22;;;230.60;2252.80;;;;;;4903934;29;20452;-91
2021/12/06 07:31:46;;;;;;;91.32;70.43;;;230.70;2252.80;;;;;;4903934;29;20461;-89
2021/12/06 07:34:12;;;;;;;78.57;62.88;;;230.70;2252.80;;;;;;4903940;29;20028;-90
2021/12/06 07:36:38;;;;;;;120.28;82.22;;;230.70;2252.80;;;;;;4905497;29;20079;-89
2021/12/06 07:39:05;;;;;;;128.88;88.43;;;230.80;2252.80;;;;;;4909128;29;20067;-91
2021/12/06 07:41:31;;;;;;;140.57;93.45;;;230.80;2252.80;;;;;;4903758;29;20031;-90
2021/12/06 07:43:58;;;;;;;158.88;108.72;;;230.80;2252.80;;;;;;4902760;29;20118;-89
2021/12/06 07:46:25;;;;;;;162.60;115.22;;;230.80;2252.80;;;;;;4903467;29;20032;-92
2021/12/06 07:48:54;;;;;;;163.07;117.72;;;230.90;2252.80;;;;;;4903744;29;20028;-91
2021/12/06 07:51:24;;;;;;;206.35;145.75;;;230.70;2252.80;;;;;;4903849;29;20020;-90
2021/12/06 07:53:51;;;;;;;167.32;118.43;;;230.70;2252.80;;;;;;4903661;29;20032;-90
2021/12/06 07:56:18;;;;;;;157.85;112.35;;;230.80;2252.80;;;;;;4903481;29;20055;-90
2021/12/06 07:58:44;;;;;;;160.38;114.82;;;230.80;2252.80;;;;;;4903396;29;20123;-89
2021/12/06 08:01:11;;;;;;;147.73;107.40;;;231.00;2252.80;;;;;;4903502;29;20028;-89
2021/12/06 08:03:39;;;;;;;165.05;114.25;;;230.90;2252.80;;;;;;4903471;29;20028;-89
2021/12/06 08:06:05;;;;;;;158.57;110.45;;;230.90;2252.80;;;;;;4903031;29;20063;-90
2021/12/06 08:08:33;;;;;;;180.50;120.28;;;230.90;2252.80;;;;;;4903265;29;20353;-88
2021/12/06 08:11:04;;;;;;;193.82;129.57;;;230.90;2252.80;;;;;;4903141;29;20566;-92
2021/12/06 08:13:33;;;;;;;187.18;141.80;;;231.00;2252.80;;;;;;4903200;29;20017;-89
2021/12/06 08:16:05;;;;;;;175.18;134.90;;;230.80;2252.80;;;;;;4903122;29;20024;-89
2021/12/06 08:18:31;;;;;;;181.48;135.40;;;230.80;2252.80;;;;;;4903100;29;20145;-88
2021/12/06 08:20:57;;;;;;;174.05;135.63;;;230.80;2252.80;;;;;;4902863;29;20476;-89
2021/12/06 08:23:24;;;;;;;182.30;138.45;;;230.80;2252.80;;;;;;4903257;29;20024;-89
2021/12/06 08:25:51;;;;;;;204.98;157.13;;;230.70;2252.80;;;;;;4903085;29;20024;-88
2021/12/06 08:28:18;;;;;;;192.55;151.65;;;231.00;2252.80;;;;;;4903047;29;20020;-89
2021/12/06 08:30:44;;;;;;;156.15;123.97;;;231.10;2073.60;;;;;;4903084;29;20052;-89
2021/12/06 08:33:12;;;;;;;140.75;109.88;;;230.70;2252.80;;;;;;4902825;29;20035;-89
2021/12/06 08:35:45;;;;;;;136.57;100.30;;;230.70;2252.80;;;;;;4902871;29;20028;-92
2021/12/06 08:38:12;;;;;;;133.13;101.18;;;230.70;2252.80;;;;;;4903035;29;20060;-91
2021/12/06 08:40:41;;;;;;;141.32;106.95;;;230.80;2252.80;;;;;;4902523;29;20376;-92
2021/12/06 08:43:07;;;;;;;178.57;130.38;;;230.90;2252.80;;;;;;4902826;29;20028;-90
2021/12/06 08:45:34;;;;;;;170.20;126.93;;;230.80;2252.80;;;;;;4902648;29;20023;-90
2021/12/06 08:48:01;;;;;;;174.95;132.10;;;231.10;2252.80;;;;;;4902018;29;20118;-90
2021/12/06 08:50:27;;;;;;;161.50;122.97;;;230.40;2252.80;;;;;;4902491;29;20024;-92
2021/12/06 08:52:54;;;;;;;142.20;104.65;;;230.70;2252.80;;;;;;4902537;29;20471;-91
2021/12/06 08:55:22;;;;;;;147.43;107.28;;;230.70;2252.80;;;;;;4902022;29;20087;-92
2021/12/06 08:57:50;;;;;;;138.60;103.38;;;230.70;2252.80;;;;;;4901973;29;20035;-91
2021/12/06 09:00:27;;;;;;;147.05;107.25;;;230.60;2252.80;;;;;;4902065;29;20028;-89
2021/12/06 09:02:53;;;;;;;168.90;125.82;;;230.60;2252.80;;;;;;4901731;29;20079;-92
2021/12/06 09:05:20;;;;;;;159.02;122.88;;;230.50;2252.80;;;;;;4902038;29;20020;-91
2021/12/06 09:07:47;;;;;;;155.10;120.45;;;230.50;2252.80;;;;;;4902120;29;20376;-92
2021/12/06 09:10:13;;;;;;;132.20;98.93;;;230.50;2252.80;;;;;;4901972;29;20036;-90
2021/12/06 09:12:40;;;;;;;105.68;80.72;;;205.40;2252.80;;;;;;4901972;29;20397;-90
2021/12/06 09:15:13;;;;;;;100.03;77.95;;;230.50;2252.80;;;;;;4902001;29;20024;-92
2021/12/06 09:17:40;;;;;;;105.63;83.72;;;230.50;2252.80;;;;;;4901914;29;20024;-89
2021/12/06 09:20:08;;;;;;;123.15;98.88;;;230.50;2252.80;;;;;;4902125;29;20357;-91
2021/12/06 09:22:35;;;;;;;110.95;84.10;;;230.50;2252.80;;;;;;4901840;29;20087;-91
2021/12/06 09:25:03;;;;;;;105.72;81.80;;;230.50;2252.80;;;;;;4901853;29;20024;-90
2021/12/06 09:27:29;;;;;;;126.20;92.50;;;230.40;2252.80;;;;;;4901916;29;20028;-89
2021/12/06 09:29:57;;;;;;;131.18;91.20;;;230.60;2252.80;;;;;;4901759;29;20035;-89
2021/12/06 09:32:25;;;;;;;117.13;79.85;;;230.60;2252.80;;;;;;4901869;29;20028;-91
2021/12/06 09:34:57;;;;;;;122.35;82.80;;;230.50;2252.80;;;;;;4901662;29;20028;-90
2021/12/06 09:37:23;;;;;;;101.30;73.13;;;230.60;2252.80;;;;;;4901587;29;20028;-90
2021/12/06 09:39:49;;;;;;;97.10;68.30;;;230.70;2252.80;;;;;;4901621;29;20372;-89
2021/12/06 09:42:18;;;;;;;80.63;60.67;;;230.70;2252.80;;;;;;4901610;29;20024;-94
2021/12/06 09:44:45;;;;;;;67.93;53.28;;;230.60;2252.80;;;;;;4901793;29;20403;-91
2021/12/06 09:47:14;;;;;;;63.88;48.90;;;230.80;2252.80;;;;;;4901707;29;20473;-91
2021/12/06 09:49:40;;;;;;;60.75;48.05;;;230.70;2252.80;;;;;;4901789;29;20024;-90
2021/12/06 09:52:07;;;;;;;56.83;42.15;;;230.80;2252.80;;;;;;4901507;29;20032;-91
2021/12/06 09:54:37;;;;;;;56.40;45.38;;;230.80;2252.80;;;;;;4902230;29;20098;-92
2021/12/06 09:57:05;;;;;;;86.93;62.88;;;230.80;2252.80;;;;;;4901958;29;20488;-91
2021/12/06 09:59:33;;;;;;;104.75;85.85;;;230.70;2252.80;;;;;;4901826;29;20020;-90
2021/12/06 10:02:06;;;;;;;118.05;91.45;;;230.70;2252.80;;;;;;4901317;29;20060;-90
2021/12/06 10:04:38;;;;;;;125.97;97.30;;;230.80;2252.80;;;;;;4901298;29;20088;-90
2021/12/06 10:07:07;;;;;;;118.55;86.13;;;230.60;2252.80;;;;;;4903863;29;20024;-91
2021/12/06 10:09:33;;;;;;;101.15;75.72;;;230.70;2252.80;;;;;;4905671;29;20024;-91
2021/12/06 10:12:01;;;;;;;88.88;66.53;;;230.70;2252.80;;;;;;4905450;29;20039;-90
2021/12/06 10:14:27;;;;;;;56.53;46.53;;;230.80;2252.80;;;;;;4905286;29;20454;-90
2021/12/06 10:16:54;;;;;;;54.83;43.78;;;230.80;2252.80;;;;;;4904968;29;20127;-90
2021/12/06 10:19:21;;;;;;;49.28;42.50;;;230.80;2252.80;;;;;;4905266;29;20063;-90
2021/12/06 10:21:47;;;;;;;40.95;32.83;;;230.70;2252.80;;;;;;4905226;29;20035;-91
2021/12/06 10:24:19;;;;;;;43.55;31.58;;;230.60;2252.80;;;;;;4904768;29;20039;-90
2021/12/06 10:26:45;;;;;;;45.50;37.42;;;230.60;2252.80;;;;;;4904947;29;20036;-89
2021/12/06 10:29:23;;;;;;;33.83;29.35;;;230.50;2252.80;;;;;;4907465;29;20102;-92
2021/12/06 10:31:53;;;;;;;35.65;26.98;;;230.40;2252.80;;;;;;4923223;29;20503;-92
2021/12/06 10:34:27;;;;;;;46.35;34.20;;;230.40;2252.80;;;;;;4923265;29;20421;-93
2021/12/06 10:37:05;;;;;;;54.97;43.25;;;205.70;2252.80;;;;;;4923197;29;20475;-95
2021/12/06 10:39:36;;;;;;;47.05;41.63;;;205.70;2252.80;;;;;;4906920;29;20195;-94
2021/12/06 10:42:08;;;;;;;43.38;35.50;;;230.40;2252.80;;;;;;4923727;29;20020;-90
2021/12/06 10:44:50;;;;;;;27.58;21.58;;;230.40;2252.80;;;;;;4923561;29;20027;-90
2021/12/06 10:47:16;;;;;;;30.25;20.00;;;205.70;2252.80;;;;;;4922726;29;20511;-89
2021/12/06 10:49:51;;;;;;;30.58;21.75;;;205.20;2252.80;;;;;;4923119;29;20460;-92
2021/12/06 10:56:20;;;;;;;36.10;26.95;;;205.60;2252.80;;;;;;4948583;29;20039;-90
2021/12/06 10:59:30;;;;;;;43.85;28.25;;;205.70;2252.80;;;;;;4938177;29;20436;-89
2021/12/06 11:02:15;;;;;;;17.48;12.30;;;205.70;2252.80;;;;;;4939976;29;20055;-90
2021/12/06 11:05:37;;;;;;;27.98;18.55;;;205.60;2252.80;;;;;;4926144;29;20032;-90
2021/12/06 11:08:41;;;;;;;13.85;10.07;;;205.60;2252.80;;;;;;4940074;29;20016;-92
2021/12/06 11:11:14;;;;;;;18.25;13.18;;;205.50;2252.80;;;;;;4922473;29;20019;-91
2021/12/06 11:13:49;;;;;;;;;;;205.50;2252.80;;;;;;4923448;29;20056;-91
2021/12/06 11:16:44;;;;;;;40.25;29.05;;;205.50;2252.80;;;;;;4939604;29;19907;-89
2021/12/06 11:50:06;;;;;;;20.58;14.65;;;179.70;2252.80;;;;;;4958368;29;20150;-83
2021/12/06 11:52:34;;;;;;;34.80;21.23;;;179.50;2252.80;;;;;;4940523;29;20122;-79
2021/12/06 11:55:07;;;;;;;44.30;27.85;;;179.60;2252.80;;;;;;4940252;29;20019;-77
2021/12/06 11:57:40;;;;;;;43.22;28.00;;;179.60;2252.80;;;;;;4939786;29;20030;-78
2021/12/06 12:01:14;;;;;;;48.63;37.67;;;179.70;2252.80;;;;;;4957605;29;20483;-85
2021/12/06 15:30:38;;;;;;;33.15;20.33;;;153.70;2252.80;;;;;;5000806;28;20112;-81
2021/12/06 15:33:08;;;;;;;34.22;22.77;;;153.70;2252.80;;;;;;4980056;28;20045;-79
2021/12/06 15:35:53;;;;;;;44.90;24.35;;;153.80;2252.80;;;;;;4983787;28;20018;-80
2021/12/06 15:38:28;;;;;;;42.13;24.17;;;153.80;2252.80;;;;;;4972317;28;20043;-80
2021/12/06 15:41:26;;;;;;;57.22;26.08;;;153.80;2252.80;;;;;;4987678;28;20026;-81
2021/12/06 16:03:01;;;;;;;89.30;59.08;;;154.10;2252.80;;;;;;4996683;28;20033;-83
2021/12/06 16:06:07;;;;;;;124.22;73.55;;;154.10;2252.80;;;;;;4995180;28;20035;-81
2021/12/06 17:09:25;;;;;;;19.02;13.88;;;153.90;2252.80;;;;;;4992786;28;20522;-83
2021/12/06 18:36:17;;;;;;;29.95;21.70;;;128.30;2252.80;;;;;;5133212;23;20045;-79
2021/12/06 18:39:12;;;;;;;31.17;20.38;;;128.40;2252.80;;;;;;5112020;27;20426;-88
2021/12/06 18:41:38;;;;;;;28.83;21.08;;;128.40;2252.80;;;;;;5111091;28;20024;-87
2021/12/06 18:46:34;;;;;;;19.17;14.75;;;128.40;2252.80;;;;;;5112170;28;20019;-88
2021/12/06 18:49:00;;;;;;;20.80;15.68;;;128.30;2252.80;;;;;;5110953;28;20020;-88
2021/12/06 18:51:27;;;;;;;24.38;18.05;;;128.30;2252.80;;;;;;5111179;28;20073;-89
2021/12/06 18:53:57;;;;;;;30.67;19.15;;;128.20;2252.80;;;;;;5111506;28;20020;-89
2021/12/06 18:56:23;;;;;;;32.47;22.10;;;128.30;2252.80;;;;;;5110894;28;20106;-89
2021/12/06 18:58:49;;;;;;;41.40;28.95;;;128.30;2252.80;;;;;;5111089;28;20031;-87
2021/12/06 19:01:19;;;;;;;40.70;27.55;;;128.30;2252.80;;;;;;5111172;28;20076;-89
2021/12/06 19:03:48;;;;;;;26.67;19.30;;;128.30;2252.80;;;;;;5111042;28;20031;-89
2021/12/06 19:06:14;;;;;;;22.73;17.00;;;128.30;2252.80;;;;;;5111161;28;20027;-82